sensor_id;sensor_type;location;lat;lon;timestamp;P1;durP1;ratioP1;P2;durP2;ratioP2
30635;SDS011;17400;52.392;9.750;2023-04-24T00:01:34;1.00;;;0.80;;
30635;SDS011;17400;52.392;9.750;2023-04-24T00:04:03;1.40;;;0.60;;
30635;SDS011;17400;52.392;9.750;2023-04-24T00:06:31;1.00;;;0.80;;
30635;SDS011;17400;52.392;9.750;2023-04-24T00:09:00;0.82;;;0.45;;
30635;SDS011;17400;52.392;9.750;2023-04-24T00:11:29;1.52;;;0.65;;
30635;SDS011;17400;52.392;9.750;2023-04-24T00:13:57;0.82;;;0.68;;
30635;SDS011;17400;52.392;9.750;2023-04-24T00:16:28;0.82;;;0.70;;
30635;SDS011;17400;52.392;9.750;2023-04-24T00:18:56;0.85;;;0.60;;
30635;SDS011;17400;52.392;9.750;2023-04-24T00:21:23;0.73;;;0.73;;
30635;SDS011;17400;52.392;9.750;2023-04-24T00:23:52;0.80;;;0.60;;
30635;SDS011;17400;52.392;9.750;2023-04-24T00:26:20;1.13;;;0.57;;
30635;SDS011;17400;52.392;9.750;2023-04-24T00:28:48;0.52;;;0.47;;
30635;SDS011;17400;52.392;9.750;2023-04-24T00:31:15;0.73;;;0.70;;
30635;SDS011;17400;52.392;9.750;2023-04-24T00:33:45;1.20;;;0.52;;
30635;SDS011;17400;52.392;9.750;2023-04-24T00:36:12;1.75;;;0.93;;
30635;SDS011;17400;52.392;9.750;2023-04-24T00:38:40;0.82;;;0.50;;
30635;SDS011;17400;52.392;9.750;2023-04-24T00:41:08;2.17;;;0.70;;
30635;SDS011;17400;52.392;9.750;2023-04-24T00:43:36;0.90;;;0.60;;
30635;SDS011;17400;52.392;9.750;2023-04-24T00:46:04;1.20;;;0.70;;
30635;SDS011;17400;52.392;9.750;2023-04-24T00:48:32;3.22;;;1.40;;
30635;SDS011;17400;52.392;9.750;2023-04-24T00:51:02;1.02;;;0.73;;
30635;SDS011;17400;52.392;9.750;2023-04-24T00:53:30;0.65;;;0.45;;
30635;SDS011;17400;52.392;9.750;2023-04-24T00:55:58;0.90;;;0.75;;
30635;SDS011;17400;52.392;9.750;2023-04-24T00:58:27;1.67;;;0.77;;
30635;SDS011;17400;52.392;9.750;2023-04-24T01:00:55;0.85;;;0.60;;
30635;SDS011;17400;52.392;9.750;2023-04-24T01:03:24;1.08;;;0.90;;
30635;SDS011;17400;52.392;9.750;2023-04-24T01:05:56;1.38;;;0.70;;
30635;SDS011;17400;52.392;9.750;2023-04-24T01:08:25;1.02;;;0.70;;
30635;SDS011;17400;52.392;9.750;2023-04-24T01:10:55;0.77;;;0.50;;
30635;SDS011;17400;52.392;9.750;2023-04-24T01:13:24;1.73;;;0.70;;
30635;SDS011;17400;52.392;9.750;2023-04-24T01:15:52;2.40;;;0.80;;
30635;SDS011;17400;52.392;9.750;2023-04-24T01:18:19;5.43;;;1.10;;
30635;SDS011;17400;52.392;9.750;2023-04-24T01:20:48;1.08;;;0.70;;
30635;SDS011;17400;52.392;9.750;2023-04-24T01:23:21;1.63;;;1.02;;
30635;SDS011;17400;52.392;9.750;2023-04-24T01:25:49;2.00;;;0.95;;
30635;SDS011;17400;52.392;9.750;2023-04-24T01:28:17;1.70;;;0.65;;
30635;SDS011;17400;52.392;9.750;2023-04-24T01:30:45;1.10;;;0.80;;
30635;SDS011;17400;52.392;9.750;2023-04-24T01:33:15;1.02;;;0.82;;
30635;SDS011;17400;52.392;9.750;2023-04-24T01:35:43;1.10;;;0.80;;
30635;SDS011;17400;52.392;9.750;2023-04-24T01:38:11;1.92;;;0.70;;
30635;SDS011;17400;52.392;9.750;2023-04-24T01:40:39;1.40;;;0.93;;
30635;SDS011;17400;52.392;9.750;2023-04-24T01:43:07;0.85;;;0.73;;
30635;SDS011;17400;52.392;9.750;2023-04-24T01:45:35;1.80;;;0.70;;
30635;SDS011;17400;52.392;9.750;2023-04-24T01:48:03;1.23;;;0.75;;
30635;SDS011;17400;52.392;9.750;2023-04-24T01:50:31;1.27;;;0.88;;
30635;SDS011;17400;52.392;9.750;2023-04-24T01:52:59;1.08;;;0.88;;
30635;SDS011;17400;52.392;9.750;2023-04-24T01:55:27;0.57;;;0.40;;
30635;SDS011;17400;52.392;9.750;2023-04-24T01:57:56;1.05;;;0.73;;
30635;SDS011;17400;52.392;9.750;2023-04-24T02:00:24;0.90;;;0.75;;
30635;SDS011;17400;52.392;9.750;2023-04-24T02:02:51;1.05;;;0.63;;
30635;SDS011;17400;52.392;9.750;2023-04-24T02:05:19;1.05;;;0.60;;
30635;SDS011;17400;52.392;9.750;2023-04-24T02:07:47;0.98;;;0.63;;
30635;SDS011;17400;52.392;9.750;2023-04-24T02:10:15;0.98;;;0.75;;
30635;SDS011;17400;52.392;9.750;2023-04-24T02:12:43;0.98;;;0.85;;
30635;SDS011;17400;52.392;9.750;2023-04-24T02:15:12;1.90;;;1.10;;
30635;SDS011;17400;52.392;9.750;2023-04-24T02:17:39;0.60;;;0.40;;
30635;SDS011;17400;52.392;9.750;2023-04-24T02:20:07;1.17;;;0.75;;
30635;SDS011;17400;52.392;9.750;2023-04-24T02:22:35;0.85;;;0.47;;
30635;SDS011;17400;52.392;9.750;2023-04-24T02:25:03;2.42;;;0.82;;
30635;SDS011;17400;52.392;9.750;2023-04-24T02:27:31;1.23;;;0.57;;
30635;SDS011;17400;52.392;9.750;2023-04-24T02:29:59;1.75;;;0.95;;
30635;SDS011;17400;52.392;9.750;2023-04-24T02:32:28;0.65;;;0.60;;
30635;SDS011;17400;52.392;9.750;2023-04-24T02:34:57;1.08;;;0.77;;
30635;SDS011;17400;52.392;9.750;2023-04-24T02:37:25;0.93;;;0.63;;
30635;SDS011;17400;52.392;9.750;2023-04-24T02:39:53;1.02;;;0.50;;
30635;SDS011;17400;52.392;9.750;2023-04-24T02:42:21;1.23;;;0.70;;
30635;SDS011;17400;52.392;9.750;2023-04-24T02:44:48;0.60;;;0.32;;
30635;SDS011;17400;52.392;9.750;2023-04-24T02:47:17;1.23;;;0.82;;
30635;SDS011;17400;52.392;9.750;2023-04-24T02:49:46;1.58;;;0.90;;
30635;SDS011;17400;52.392;9.750;2023-04-24T02:52:14;1.08;;;0.73;;
30635;SDS011;17400;52.392;9.750;2023-04-24T02:54:43;2.38;;;0.68;;
30635;SDS011;17400;52.392;9.750;2023-04-24T02:57:10;1.38;;;0.85;;
30635;SDS011;17400;52.392;9.750;2023-04-24T02:59:38;2.70;;;0.73;;
30635;SDS011;17400;52.392;9.750;2023-04-24T03:02:06;1.05;;;0.70;;
30635;SDS011;17400;52.392;9.750;2023-04-24T03:04:34;1.10;;;0.70;;
30635;SDS011;17400;52.392;9.750;2023-04-24T03:07:04;0.95;;;0.85;;
30635;SDS011;17400;52.392;9.750;2023-04-24T03:09:32;0.90;;;0.70;;
30635;SDS011;17400;52.392;9.750;2023-04-24T03:11:59;0.80;;;0.63;;
30635;SDS011;17400;52.392;9.750;2023-04-24T03:14:27;1.10;;;0.60;;
30635;SDS011;17400;52.392;9.750;2023-04-24T03:16:57;1.95;;;0.80;;
30635;SDS011;17400;52.392;9.750;2023-04-24T03:19:25;1.00;;;0.73;;
30635;SDS011;17400;52.392;9.750;2023-04-24T03:21:52;1.85;;;0.55;;
30635;SDS011;17400;52.392;9.750;2023-04-24T03:24:22;0.60;;;0.47;;
30635;SDS011;17400;52.392;9.750;2023-04-24T03:26:49;0.82;;;0.60;;
30635;SDS011;17400;52.392;9.750;2023-04-24T03:29:17;0.50;;;0.50;;
30635;SDS011;17400;52.392;9.750;2023-04-24T03:31:45;1.20;;;0.50;;
30635;SDS011;17400;52.392;9.750;2023-04-24T03:34:12;0.85;;;0.70;;
30635;SDS011;17400;52.392;9.750;2023-04-24T03:36:40;2.00;;;0.60;;
30635;SDS011;17400;52.392;9.750;2023-04-24T03:39:08;3.85;;;0.60;;
30635;SDS011;17400;52.392;9.750;2023-04-24T03:41:40;0.70;;;0.40;;
30635;SDS011;17400;52.392;9.750;2023-04-24T03:44:07;0.50;;;0.50;;
30635;SDS011;17400;52.392;9.750;2023-04-24T03:46:35;0.60;;;0.50;;
30635;SDS011;17400;52.392;9.750;2023-04-24T03:49:03;1.02;;;0.45;;
30635;SDS011;17400;52.392;9.750;2023-04-24T03:51:30;0.80;;;0.45;;
30635;SDS011;17400;52.392;9.750;2023-04-24T03:53:58;0.50;;;0.50;;
30635;SDS011;17400;52.392;9.750;2023-04-24T03:56:26;1.80;;;0.60;;
30635;SDS011;17400;52.392;9.750;2023-04-24T03:58:55;1.75;;;0.50;;
30635;SDS011;17400;52.392;9.750;2023-04-24T04:01:22;2.42;;;1.25;;
30635;SDS011;17400;52.392;9.750;2023-04-24T04:03:50;4.00;;;2.33;;
30635;SDS011;17400;52.392;9.750;2023-04-24T04:06:18;3.17;;;2.13;;
30635;SDS011;17400;52.392;9.750;2023-04-24T04:08:50;5.65;;;2.15;;
30635;SDS011;17400;52.392;9.750;2023-04-24T04:11:17;5.65;;;3.92;;
30635;SDS011;17400;52.392;9.750;2023-04-24T04:13:46;10.63;;;5.57;;
30635;SDS011;17400;52.392;9.750;2023-04-24T04:16:15;6.13;;;2.90;;
30635;SDS011;17400;52.392;9.750;2023-04-24T04:18:44;3.03;;;1.55;;
30635;SDS011;17400;52.392;9.750;2023-04-24T04:21:11;1.92;;;0.88;;
30635;SDS011;17400;52.392;9.750;2023-04-24T04:23:39;1.10;;;0.52;;
30635;SDS011;17400;52.392;9.750;2023-04-24T04:26:07;1.25;;;0.82;;
30635;SDS011;17400;52.392;9.750;2023-04-24T04:28:35;0.82;;;0.40;;
30635;SDS011;17400;52.392;9.750;2023-04-24T04:31:04;1.30;;;0.57;;
30635;SDS011;17400;52.392;9.750;2023-04-24T04:33:33;1.77;;;0.65;;
30635;SDS011;17400;52.392;9.750;2023-04-24T04:36:02;4.47;;;0.90;;
30635;SDS011;17400;52.392;9.750;2023-04-24T04:38:30;0.40;;;0.40;;
30635;SDS011;17400;52.392;9.750;2023-04-24T04:40:58;1.25;;;0.70;;
30635;SDS011;17400;52.392;9.750;2023-04-24T04:43:25;0.57;;;0.40;;
30635;SDS011;17400;52.392;9.750;2023-04-24T04:45:53;1.73;;;0.85;;
30635;SDS011;17400;52.392;9.750;2023-04-24T04:48:22;1.00;;;0.80;;
30635;SDS011;17400;52.392;9.750;2023-04-24T04:50:51;1.00;;;0.52;;
30635;SDS011;17400;52.392;9.750;2023-04-24T04:53:19;1.17;;;1.02;;
30635;SDS011;17400;52.392;9.750;2023-04-24T04:55:46;1.13;;;1.00;;
30635;SDS011;17400;52.392;9.750;2023-04-24T04:58:14;0.95;;;0.82;;
30635;SDS011;17400;52.392;9.750;2023-04-24T05:00:42;0.60;;;0.60;;
30635;SDS011;17400;52.392;9.750;2023-04-24T05:03:10;1.90;;;0.63;;
30635;SDS011;17400;52.392;9.750;2023-04-24T05:05:46;0.93;;;0.60;;
30635;SDS011;17400;52.392;9.750;2023-04-24T05:08:15;2.63;;;0.73;;
30635;SDS011;17400;52.392;9.750;2023-04-24T05:10:53;1.23;;;0.68;;
30635;SDS011;17400;52.392;9.750;2023-04-24T05:13:22;1.25;;;0.63;;
30635;SDS011;17400;52.392;9.750;2023-04-24T05:15:52;1.33;;;0.70;;
30635;SDS011;17400;52.392;9.750;2023-04-24T05:18:20;1.58;;;1.10;;
30635;SDS011;17400;52.392;9.750;2023-04-24T05:20:48;1.50;;;0.95;;
30635;SDS011;17400;52.392;9.750;2023-04-24T05:23:19;1.35;;;0.80;;
30635;SDS011;17400;52.392;9.750;2023-04-24T05:25:46;1.08;;;0.73;;
30635;SDS011;17400;52.392;9.750;2023-04-24T05:28:15;1.33;;;0.80;;
30635;SDS011;17400;52.392;9.750;2023-04-24T05:30:43;1.10;;;0.63;;
30635;SDS011;17400;52.392;9.750;2023-04-24T05:33:11;1.52;;;0.80;;
30635;SDS011;17400;52.392;9.750;2023-04-24T05:35:40;1.73;;;0.80;;
30635;SDS011;17400;52.392;9.750;2023-04-24T05:38:12;2.47;;;1.00;;
30635;SDS011;17400;52.392;9.750;2023-04-24T05:40:41;1.40;;;0.90;;
30635;SDS011;17400;52.392;9.750;2023-04-24T05:43:09;3.05;;;0.80;;
30635;SDS011;17400;52.392;9.750;2023-04-24T05:45:36;1.73;;;1.17;;
30635;SDS011;17400;52.392;9.750;2023-04-24T05:48:05;10.07;;;5.95;;
30635;SDS011;17400;52.392;9.750;2023-04-24T05:50:35;4.20;;;2.83;;
30635;SDS011;17400;52.392;9.750;2023-04-24T05:53:03;3.03;;;1.60;;
30635;SDS011;17400;52.392;9.750;2023-04-24T05:55:33;1.75;;;1.20;;
30635;SDS011;17400;52.392;9.750;2023-04-24T05:58:03;3.53;;;1.58;;
30635;SDS011;17400;52.392;9.750;2023-04-24T06:00:31;2.10;;;1.30;;
30635;SDS011;17400;52.392;9.750;2023-04-24T06:03:00;2.28;;;1.25;;
30635;SDS011;17400;52.392;9.750;2023-04-24T06:05:30;1.60;;;0.90;;
30635;SDS011;17400;52.392;9.750;2023-04-24T06:07:58;2.63;;;1.15;;
30635;SDS011;17400;52.392;9.750;2023-04-24T06:10:26;1.95;;;1.20;;
30635;SDS011;17400;52.392;9.750;2023-04-24T06:12:53;1.73;;;1.20;;
30635;SDS011;17400;52.392;9.750;2023-04-24T06:15:23;1.42;;;1.00;;
30635;SDS011;17400;52.392;9.750;2023-04-24T06:17:51;1.70;;;1.10;;
30635;SDS011;17400;52.392;9.750;2023-04-24T06:20:19;2.83;;;1.20;;
30635;SDS011;17400;52.392;9.750;2023-04-24T06:22:47;1.70;;;1.08;;
30635;SDS011;17400;52.392;9.750;2023-04-24T06:25:14;2.22;;;1.60;;
30635;SDS011;17400;52.392;9.750;2023-04-24T06:27:42;2.63;;;1.05;;
30635;SDS011;17400;52.392;9.750;2023-04-24T06:30:10;1.48;;;0.85;;
30635;SDS011;17400;52.392;9.750;2023-04-24T06:32:39;2.38;;;1.50;;
30635;SDS011;17400;52.392;9.750;2023-04-24T06:35:07;2.38;;;1.35;;
30635;SDS011;17400;52.392;9.750;2023-04-24T06:37:36;1.27;;;0.80;;
30635;SDS011;17400;52.392;9.750;2023-04-24T06:40:04;1.08;;;1.00;;
30635;SDS011;17400;52.392;9.750;2023-04-24T06:42:34;1.25;;;0.90;;
30635;SDS011;17400;52.392;9.750;2023-04-24T06:45:02;1.88;;;1.35;;
30635;SDS011;17400;52.392;9.750;2023-04-24T06:47:31;2.92;;;1.05;;
30635;SDS011;17400;52.392;9.750;2023-04-24T06:50:00;2.08;;;1.40;;
30635;SDS011;17400;52.392;9.750;2023-04-24T06:52:28;2.83;;;1.50;;
30635;SDS011;17400;52.392;9.750;2023-04-24T06:55:02;2.53;;;1.60;;
30635;SDS011;17400;52.392;9.750;2023-04-24T06:57:30;2.88;;;1.70;;
30635;SDS011;17400;52.392;9.750;2023-04-24T06:59:58;2.03;;;1.58;;
30635;SDS011;17400;52.392;9.750;2023-04-24T07:02:26;3.53;;;1.98;;
30635;SDS011;17400;52.392;9.750;2023-04-24T07:04:54;2.85;;;2.15;;
30635;SDS011;17400;52.392;9.750;2023-04-24T07:07:23;3.90;;;2.65;;
30635;SDS011;17400;52.392;9.750;2023-04-24T07:09:56;3.10;;;2.10;;
30635;SDS011;17400;52.392;9.750;2023-04-24T07:12:24;5.10;;;3.60;;
30635;SDS011;17400;52.392;9.750;2023-04-24T07:14:52;5.32;;;3.63;;
30635;SDS011;17400;52.392;9.750;2023-04-24T07:17:20;7.13;;;3.45;;
30635;SDS011;17400;52.392;9.750;2023-04-24T07:19:48;5.35;;;3.25;;
30635;SDS011;17400;52.392;9.750;2023-04-24T07:22:16;6.22;;;3.47;;
30635;SDS011;17400;52.392;9.750;2023-04-24T07:24:45;3.78;;;2.35;;
30635;SDS011;17400;52.392;9.750;2023-04-24T07:27:13;5.40;;;3.65;;
30635;SDS011;17400;52.392;9.750;2023-04-24T07:29:41;6.65;;;3.45;;
30635;SDS011;17400;52.392;9.750;2023-04-24T07:32:10;5.43;;;3.55;;
30635;SDS011;17400;52.392;9.750;2023-04-24T07:34:37;6.63;;;3.72;;
30635;SDS011;17400;52.392;9.750;2023-04-24T07:37:05;5.10;;;3.10;;
30635;SDS011;17400;52.392;9.750;2023-04-24T07:39:32;7.32;;;4.22;;
30635;SDS011;17400;52.392;9.750;2023-04-24T07:42:02;6.68;;;3.92;;
30635;SDS011;17400;52.392;9.750;2023-04-24T07:44:30;4.78;;;2.80;;
30635;SDS011;17400;52.392;9.750;2023-04-24T07:46:58;4.93;;;2.95;;
30635;SDS011;17400;52.392;9.750;2023-04-24T07:49:26;7.63;;;4.30;;
30635;SDS011;17400;52.392;9.750;2023-04-24T07:51:54;5.93;;;3.88;;
30635;SDS011;17400;52.392;9.750;2023-04-24T07:54:21;7.38;;;4.55;;
30635;SDS011;17400;52.392;9.750;2023-04-24T07:56:49;8.75;;;5.07;;
30635;SDS011;17400;52.392;9.750;2023-04-24T07:59:18;7.78;;;4.63;;
30635;SDS011;17400;52.392;9.750;2023-04-24T08:01:46;7.93;;;4.63;;
30635;SDS011;17400;52.392;9.750;2023-04-24T08:04:14;5.80;;;3.72;;
30635;SDS011;17400;52.392;9.750;2023-04-24T08:06:42;7.53;;;4.35;;
30635;SDS011;17400;52.392;9.750;2023-04-24T08:09:10;8.27;;;5.03;;
30635;SDS011;17400;52.392;9.750;2023-04-24T08:11:37;7.80;;;5.72;;
30635;SDS011;17400;52.392;9.750;2023-04-24T08:14:05;8.63;;;5.25;;
30635;SDS011;17400;52.392;9.750;2023-04-24T08:16:34;8.45;;;5.75;;
30635;SDS011;17400;52.392;9.750;2023-04-24T08:19:02;12.43;;;5.63;;
30635;SDS011;17400;52.392;9.750;2023-04-24T08:21:33;12.35;;;5.95;;
30635;SDS011;17400;52.392;9.750;2023-04-24T08:24:01;10.68;;;6.28;;
30635;SDS011;17400;52.392;9.750;2023-04-24T08:26:31;11.82;;;5.72;;
30635;SDS011;17400;52.392;9.750;2023-04-24T08:28:59;9.13;;;5.15;;
30635;SDS011;17400;52.392;9.750;2023-04-24T08:31:26;9.57;;;4.47;;
30635;SDS011;17400;52.392;9.750;2023-04-24T08:33:55;6.80;;;4.65;;
30635;SDS011;17400;52.392;9.750;2023-04-24T08:36:23;7.85;;;4.68;;
30635;SDS011;17400;52.392;9.750;2023-04-24T08:39:09;7.22;;;4.10;;
30635;SDS011;17400;52.392;9.750;2023-04-24T08:41:36;7.97;;;4.35;;
30635;SDS011;17400;52.392;9.750;2023-04-24T08:44:05;4.78;;;3.20;;
30635;SDS011;17400;52.392;9.750;2023-04-24T08:46:36;11.10;;;6.15;;
30635;SDS011;17400;52.392;9.750;2023-04-24T08:49:05;5.93;;;4.15;;
30635;SDS011;17400;52.392;9.750;2023-04-24T08:51:33;9.13;;;5.20;;
30635;SDS011;17400;52.392;9.750;2023-04-24T08:54:04;5.88;;;4.30;;
30635;SDS011;17400;52.392;9.750;2023-04-24T08:56:32;7.43;;;4.60;;
30635;SDS011;17400;52.392;9.750;2023-04-24T08:59:04;7.45;;;4.00;;
30635;SDS011;17400;52.392;9.750;2023-04-24T09:01:32;6.63;;;3.80;;
30635;SDS011;17400;52.392;9.750;2023-04-24T09:04:03;8.35;;;4.97;;
30635;SDS011;17400;52.392;9.750;2023-04-24T09:06:32;3.20;;;1.83;;
30635;SDS011;17400;52.392;9.750;2023-04-24T09:09:01;6.75;;;4.50;;
30635;SDS011;17400;52.392;9.750;2023-04-24T09:11:30;4.60;;;3.40;;
30635;SDS011;17400;52.392;9.750;2023-04-24T09:13:58;5.07;;;3.13;;
30635;SDS011;17400;52.392;9.750;2023-04-24T09:16:28;4.45;;;2.58;;
30635;SDS011;17400;52.392;9.750;2023-04-24T09:18:56;6.47;;;2.95;;
30635;SDS011;17400;52.392;9.750;2023-04-24T09:21:24;6.05;;;2.95;;
30635;SDS011;17400;52.392;9.750;2023-04-24T09:24:00;3.97;;;2.30;;
30635;SDS011;17400;52.392;9.750;2023-04-24T09:26:29;5.85;;;2.70;;
30635;SDS011;17400;52.392;9.750;2023-04-24T09:28:59;4.18;;;2.17;;
30635;SDS011;17400;52.392;9.750;2023-04-24T09:31:27;5.10;;;3.35;;
30635;SDS011;17400;52.392;9.750;2023-04-24T09:33:57;5.03;;;2.80;;
30635;SDS011;17400;52.392;9.750;2023-04-24T09:36:29;4.45;;;3.10;;
30635;SDS011;17400;52.392;9.750;2023-04-24T09:39:01;5.35;;;2.35;;
30635;SDS011;17400;52.392;9.750;2023-04-24T09:41:29;3.45;;;2.22;;
30635;SDS011;17400;52.392;9.750;2023-04-24T09:43:57;6.70;;;2.53;;
30635;SDS011;17400;52.392;9.750;2023-04-24T09:46:38;4.43;;;2.80;;
30635;SDS011;17400;52.392;9.750;2023-04-24T09:49:07;5.10;;;3.35;;
30635;SDS011;17400;52.392;9.750;2023-04-24T09:51:37;4.15;;;3.05;;
30635;SDS011;17400;52.392;9.750;2023-04-24T09:54:12;4.25;;;2.42;;
30635;SDS011;17400;52.392;9.750;2023-04-24T09:56:42;3.92;;;2.88;;
30635;SDS011;17400;52.392;9.750;2023-04-24T09:59:11;3.63;;;2.30;;
30635;SDS011;17400;52.392;9.750;2023-04-24T10:01:40;4.18;;;2.83;;
30635;SDS011;17400;52.392;9.750;2023-04-24T10:04:17;2.60;;;2.05;;
30635;SDS011;17400;52.392;9.750;2023-04-24T10:06:47;4.03;;;2.35;;
30635;SDS011;17400;52.392;9.750;2023-04-24T10:09:18;2.72;;;1.58;;
30635;SDS011;17400;52.392;9.750;2023-04-24T10:11:46;2.65;;;2.20;;
30635;SDS011;17400;52.392;9.750;2023-04-24T10:14:16;4.20;;;2.83;;
30635;SDS011;17400;52.392;9.750;2023-04-24T10:16:45;3.08;;;2.10;;
30635;SDS011;17400;52.392;9.750;2023-04-24T10:19:14;3.33;;;1.98;;
30635;SDS011;17400;52.392;9.750;2023-04-24T10:21:45;2.78;;;1.75;;
30635;SDS011;17400;52.392;9.750;2023-04-24T10:24:13;6.47;;;3.05;;
30635;SDS011;17400;52.392;9.750;2023-04-24T10:26:44;6.10;;;3.38;;
30635;SDS011;17400;52.392;9.750;2023-04-24T10:29:15;4.00;;;2.70;;
30635;SDS011;17400;52.392;9.750;2023-04-24T10:31:44;4.35;;;2.97;;
30635;SDS011;17400;52.392;9.750;2023-04-24T10:34:14;4.78;;;2.65;;
30635;SDS011;17400;52.392;9.750;2023-04-24T10:36:46;3.03;;;1.90;;
30635;SDS011;17400;52.392;9.750;2023-04-24T10:39:19;3.58;;;2.13;;
30635;SDS011;17400;52.392;9.750;2023-04-24T10:41:54;4.40;;;2.20;;
30635;SDS011;17400;52.392;9.750;2023-04-24T10:44:23;3.45;;;2.50;;
30635;SDS011;17400;52.392;9.750;2023-04-24T10:46:52;4.53;;;1.85;;
30635;SDS011;17400;52.392;9.750;2023-04-24T10:49:27;2.15;;;1.50;;
30635;SDS011;17400;52.392;9.750;2023-04-24T10:52:00;3.95;;;2.60;;
30635;SDS011;17400;52.392;9.750;2023-04-24T10:54:34;5.15;;;2.40;;
30635;SDS011;17400;52.392;9.750;2023-04-24T11:02:54;3.28;;;1.73;;
30635;SDS011;17400;52.392;9.750;2023-04-24T11:05:48;2.63;;;1.67;;
30635;SDS011;17400;52.392;9.750;2023-04-24T11:08:21;4.97;;;2.13;;
30635;SDS011;17400;52.392;9.750;2023-04-24T11:10:56;2.92;;;1.73;;
30635;SDS011;17400;52.392;9.750;2023-04-24T11:13:27;2.70;;;1.77;;
30635;SDS011;17400;52.392;9.750;2023-04-24T11:18:42;3.05;;;1.73;;
30635;SDS011;17400;52.392;9.750;2023-04-24T11:21:12;0.52;;;0.52;;
30635;SDS011;17400;52.392;9.750;2023-04-24T11:23:40;2.03;;;1.50;;
30635;SDS011;17400;52.392;9.750;2023-04-24T11:26:11;4.95;;;1.60;;
30635;SDS011;17400;52.392;9.750;2023-04-24T11:28:48;3.05;;;1.92;;
30635;SDS011;17400;52.392;9.750;2023-04-24T11:31:35;3.47;;;2.10;;
30635;SDS011;17400;52.392;9.750;2023-04-24T11:34:07;2.60;;;1.27;;
30635;SDS011;17400;52.392;9.750;2023-04-24T11:36:36;3.90;;;1.70;;
30635;SDS011;17400;52.392;9.750;2023-04-24T11:39:04;2.45;;;1.50;;
30635;SDS011;17400;52.392;9.750;2023-04-24T11:41:33;2.55;;;1.27;;
30635;SDS011;17400;52.392;9.750;2023-04-24T11:44:02;3.67;;;1.73;;
30635;SDS011;17400;52.392;9.750;2023-04-24T11:46:32;2.22;;;1.10;;
30635;SDS011;17400;52.392;9.750;2023-04-24T11:49:00;1.48;;;1.15;;
30635;SDS011;17400;52.392;9.750;2023-04-24T11:51:28;1.33;;;0.98;;
30635;SDS011;17400;52.392;9.750;2023-04-24T11:54:09;1.67;;;1.08;;
30635;SDS011;17400;52.392;9.750;2023-04-24T11:56:37;2.33;;;1.48;;
30635;SDS011;17400;52.392;9.750;2023-04-24T11:59:06;1.77;;;1.17;;
30635;SDS011;17400;52.392;9.750;2023-04-24T12:01:42;1.45;;;1.27;;
30635;SDS011;17400;52.392;9.750;2023-04-24T12:04:10;2.13;;;1.15;;
30635;SDS011;17400;52.392;9.750;2023-04-24T12:06:39;4.57;;;1.60;;
30635;SDS011;17400;52.392;9.750;2023-04-24T12:09:06;3.22;;;1.48;;
30635;SDS011;17400;52.392;9.750;2023-04-24T12:11:52;1.90;;;1.00;;
30635;SDS011;17400;52.392;9.750;2023-04-24T12:14:21;1.88;;;1.00;;
30635;SDS011;17400;52.392;9.750;2023-04-24T12:16:49;1.88;;;1.08;;
30635;SDS011;17400;52.392;9.750;2023-04-24T12:19:18;0.93;;;0.57;;
30635;SDS011;17400;52.392;9.750;2023-04-24T12:21:58;0.73;;;0.70;;
30635;SDS011;17400;52.392;9.750;2023-04-24T12:24:27;1.45;;;1.00;;
30635;SDS011;17400;52.392;9.750;2023-04-24T12:26:54;1.08;;;0.70;;
30635;SDS011;17400;52.392;9.750;2023-04-24T12:29:24;1.48;;;0.50;;
30635;SDS011;17400;52.392;9.750;2023-04-24T12:31:52;1.25;;;0.80;;
30635;SDS011;17400;52.392;9.750;2023-04-24T12:34:20;1.17;;;0.80;;
30635;SDS011;17400;52.392;9.750;2023-04-24T12:36:48;2.45;;;1.00;;
30635;SDS011;17400;52.392;9.750;2023-04-24T12:39:16;1.25;;;1.05;;
30635;SDS011;17400;52.392;9.750;2023-04-24T12:41:50;1.70;;;1.30;;
30635;SDS011;17400;52.392;9.750;2023-04-24T12:44:31;1.00;;;0.80;;
30635;SDS011;17400;52.392;9.750;2023-04-24T12:47:01;2.97;;;1.20;;
30635;SDS011;17400;52.392;9.750;2023-04-24T12:49:29;2.22;;;1.50;;
30635;SDS011;17400;52.392;9.750;2023-04-24T12:51:57;2.22;;;1.30;;
30635;SDS011;17400;52.392;9.750;2023-04-24T12:54:31;1.60;;;1.10;;
30635;SDS011;17400;52.392;9.750;2023-04-24T12:56:59;1.10;;;0.90;;
30635;SDS011;17400;52.392;9.750;2023-04-24T12:59:27;1.33;;;1.23;;
30635;SDS011;17400;52.392;9.750;2023-04-24T13:01:56;1.73;;;1.40;;
30635;SDS011;17400;52.392;9.750;2023-04-24T13:04:24;1.13;;;0.60;;
30635;SDS011;17400;52.392;9.750;2023-04-24T13:06:54;1.23;;;1.05;;
30635;SDS011;17400;52.392;9.750;2023-04-24T13:09:22;1.55;;;1.25;;
30635;SDS011;17400;52.392;9.750;2023-04-24T13:11:50;1.55;;;1.08;;
30635;SDS011;17400;52.392;9.750;2023-04-24T13:14:18;1.83;;;1.10;;
30635;SDS011;17400;52.392;9.750;2023-04-24T13:16:45;1.30;;;0.88;;
30635;SDS011;17400;52.392;9.750;2023-04-24T13:19:14;1.70;;;1.25;;
30635;SDS011;17400;52.392;9.750;2023-04-24T13:21:42;1.92;;;1.13;;
30635;SDS011;17400;52.392;9.750;2023-04-24T13:24:10;1.73;;;1.20;;
30635;SDS011;17400;52.392;9.750;2023-04-24T13:26:39;2.65;;;1.23;;
30635;SDS011;17400;52.392;9.750;2023-04-24T13:29:07;1.98;;;1.30;;
30635;SDS011;17400;52.392;9.750;2023-04-24T13:31:35;1.48;;;1.05;;
30635;SDS011;17400;52.392;9.750;2023-04-24T13:34:02;2.17;;;1.25;;
30635;SDS011;17400;52.392;9.750;2023-04-24T13:36:32;1.27;;;0.90;;
30635;SDS011;17400;52.392;9.750;2023-04-24T13:38:59;1.70;;;1.10;;
30635;SDS011;17400;52.392;9.750;2023-04-24T13:41:27;1.83;;;1.38;;
30635;SDS011;17400;52.392;9.750;2023-04-24T13:43:55;2.13;;;1.55;;
30635;SDS011;17400;52.392;9.750;2023-04-24T13:46:22;1.20;;;1.10;;
30635;SDS011;17400;52.392;9.750;2023-04-24T13:48:50;1.23;;;0.88;;
30635;SDS011;17400;52.392;9.750;2023-04-24T13:51:18;2.35;;;1.33;;
30635;SDS011;17400;52.392;9.750;2023-04-24T13:53:47;1.67;;;0.80;;
30635;SDS011;17400;52.392;9.750;2023-04-24T13:56:15;1.33;;;0.50;;
30635;SDS011;17400;52.392;9.750;2023-04-24T13:58:43;1.55;;;0.80;;
30635;SDS011;17400;52.392;9.750;2023-04-24T14:01:11;0.45;;;0.45;;
30635;SDS011;17400;52.392;9.750;2023-04-24T14:03:39;5.63;;;0.88;;
30635;SDS011;17400;52.392;9.750;2023-04-24T14:06:07;0.93;;;0.60;;
30635;SDS011;17400;52.392;9.750;2023-04-24T14:08:35;1.70;;;0.90;;
30635;SDS011;17400;52.392;9.750;2023-04-24T14:11:06;0.45;;;0.40;;
30635;SDS011;17400;52.392;9.750;2023-04-24T14:13:35;0.55;;;0.55;;
30635;SDS011;17400;52.392;9.750;2023-04-24T14:16:04;1.77;;;0.80;;
30635;SDS011;17400;52.392;9.750;2023-04-24T14:18:34;0.50;;;0.28;;
30635;SDS011;17400;52.392;9.750;2023-04-24T14:21:03;1.77;;;1.02;;
30635;SDS011;17400;52.392;9.750;2023-04-24T14:23:32;1.73;;;1.17;;
30635;SDS011;17400;52.392;9.750;2023-04-24T14:26:03;3.80;;;1.35;;
30635;SDS011;17400;52.392;9.750;2023-04-24T14:28:33;2.40;;;1.10;;
30635;SDS011;17400;52.392;9.750;2023-04-24T14:31:01;2.95;;;1.48;;
30635;SDS011;17400;52.392;9.750;2023-04-24T14:33:29;2.40;;;1.13;;
30635;SDS011;17400;52.392;9.750;2023-04-24T14:35:57;3.63;;;1.95;;
30635;SDS011;17400;52.392;9.750;2023-04-24T14:38:25;2.25;;;1.42;;
30635;SDS011;17400;52.392;9.750;2023-04-24T14:40:56;5.53;;;1.77;;
30635;SDS011;17400;52.392;9.750;2023-04-24T14:43:34;3.92;;;1.85;;
30635;SDS011;17400;52.392;9.750;2023-04-24T14:46:03;2.65;;;1.40;;
30635;SDS011;17400;52.392;9.750;2023-04-24T14:48:32;2.17;;;1.45;;
30635;SDS011;17400;52.392;9.750;2023-04-24T14:51:00;3.30;;;1.73;;
30635;SDS011;17400;52.392;9.750;2023-04-24T14:53:30;2.58;;;1.50;;
30635;SDS011;17400;52.392;9.750;2023-04-24T14:55:58;4.93;;;2.55;;
30635;SDS011;17400;52.392;9.750;2023-04-24T14:58:26;3.75;;;1.98;;
30635;SDS011;17400;52.392;9.750;2023-04-24T15:00:56;4.25;;;1.98;;
30635;SDS011;17400;52.392;9.750;2023-04-24T15:03:23;6.38;;;2.40;;
30635;SDS011;17400;52.392;9.750;2023-04-24T15:05:53;4.97;;;1.83;;
30635;SDS011;17400;52.392;9.750;2023-04-24T15:08:21;3.03;;;1.90;;